sensor_id;sensor_type;location;lat;lon;timestamp;P1;durP1;ratioP1;P2;durP2;ratioP2
60426;SDS011;46274;47.168;27.604;2023-02-01T00:04:03;7.83;;;3.37;;
60426;SDS011;46274;47.168;27.604;2023-02-01T00:10:14;7.53;;;3.17;;
60426;SDS011;46274;47.168;27.604;2023-02-01T00:16:25;13.27;;;3.00;;
60426;SDS011;46274;47.168;27.604;2023-02-01T00:22:50;7.33;;;3.00;;
60426;SDS011;46274;47.168;27.604;2023-02-01T00:29:00;9.07;;;2.73;;
60426;SDS011;46274;47.168;27.604;2023-02-01T00:35:29;8.40;;;2.70;;
60426;SDS011;46274;47.168;27.604;2023-02-01T00:41:38;8.40;;;2.50;;
60426;SDS011;46274;47.168;27.604;2023-02-01T00:47:56;8.60;;;3.03;;
60426;SDS011;46274;47.168;27.604;2023-02-01T00:54:14;11.30;;;3.30;;
60426;SDS011;46274;47.168;27.604;2023-02-01T01:00:25;9.77;;;3.30;;
60426;SDS011;46274;47.168;27.604;2023-02-01T01:06:41;12.37;;;3.00;;
60426;SDS011;46274;47.168;27.604;2023-02-01T01:12:57;9.87;;;3.37;;
60426;SDS011;46274;47.168;27.604;2023-02-01T01:19:09;13.20;;;3.90;;
60426;SDS011;46274;47.168;27.604;2023-02-01T01:25:18;14.57;;;3.63;;
60426;SDS011;46274;47.168;27.604;2023-02-01T01:31:29;9.93;;;4.33;;
60426;SDS011;46274;47.168;27.604;2023-02-01T01:37:39;18.63;;;3.87;;
60426;SDS011;46274;47.168;27.604;2023-02-01T01:50:45;8.60;;;3.40;;
60426;SDS011;46274;47.168;27.604;2023-02-01T01:56:53;10.77;;;3.90;;
60426;SDS011;46274;47.168;27.604;2023-02-01T02:03:46;9.90;;;3.70;;
60426;SDS011;46274;47.168;27.604;2023-02-01T02:10:19;11.97;;;4.27;;
60426;SDS011;46274;47.168;27.604;2023-02-01T02:36:55;10.30;;;3.73;;
60426;SDS011;46274;47.168;27.604;2023-02-01T02:43:47;10.90;;;4.10;;
60426;SDS011;46274;47.168;27.604;2023-02-01T02:57:30;14.87;;;5.60;;
60426;SDS011;46274;47.168;27.604;2023-02-01T03:04:05;21.07;;;6.03;;
60426;SDS011;46274;47.168;27.604;2023-02-01T03:10:26;17.37;;;5.27;;
60426;SDS011;46274;47.168;27.604;2023-02-01T03:17:12;13.50;;;4.50;;
60426;SDS011;46274;47.168;27.604;2023-02-01T03:23:26;14.00;;;4.83;;
60426;SDS011;46274;47.168;27.604;2023-02-01T03:29:48;11.97;;;4.63;;
60426;SDS011;46274;47.168;27.604;2023-02-01T03:42:49;15.27;;;4.60;;
60426;SDS011;46274;47.168;27.604;2023-02-01T03:49:05;12.23;;;3.57;;
60426;SDS011;46274;47.168;27.604;2023-02-01T03:55:10;17.73;;;5.30;;
60426;SDS011;46274;47.168;27.604;2023-02-01T04:01:40;19.73;;;5.13;;
60426;SDS011;46274;47.168;27.604;2023-02-01T04:07:59;15.87;;;4.50;;
60426;SDS011;46274;47.168;27.604;2023-02-01T04:20:51;19.63;;;7.77;;
60426;SDS011;46274;47.168;27.604;2023-02-01T04:27:17;11.97;;;4.67;;
60426;SDS011;46274;47.168;27.604;2023-02-01T04:33:30;12.33;;;4.43;;
60426;SDS011;46274;47.168;27.604;2023-02-01T04:39:33;13.17;;;4.00;;
60426;SDS011;46274;47.168;27.604;2023-02-01T04:45:46;13.60;;;4.97;;
60426;SDS011;46274;47.168;27.604;2023-02-01T04:51:51;16.70;;;5.20;;
60426;SDS011;46274;47.168;27.604;2023-02-01T04:57:53;13.83;;;5.43;;
60426;SDS011;46274;47.168;27.604;2023-02-01T05:04:10;15.10;;;4.80;;
60426;SDS011;46274;47.168;27.604;2023-02-01T05:10:17;13.23;;;4.80;;
60426;SDS011;46274;47.168;27.604;2023-02-01T05:16:22;9.10;;;3.70;;
60426;SDS011;46274;47.168;27.604;2023-02-01T05:22:34;8.70;;;3.83;;
60426;SDS011;46274;47.168;27.604;2023-02-01T05:28:56;8.10;;;3.67;;
60426;SDS011;46274;47.168;27.604;2023-02-01T05:35:12;6.67;;;3.07;;
60426;SDS011;46274;47.168;27.604;2023-02-01T05:41:31;13.03;;;3.50;;
60426;SDS011;46274;47.168;27.604;2023-02-01T05:47:58;7.63;;;3.00;;
60426;SDS011;46274;47.168;27.604;2023-02-01T05:54:10;9.77;;;3.07;;
60426;SDS011;46274;47.168;27.604;2023-02-01T06:01:03;12.70;;;3.20;;
60426;SDS011;46274;47.168;27.604;2023-02-01T06:07:13;13.97;;;6.10;;
60426;SDS011;46274;47.168;27.604;2023-02-01T06:13:41;8.53;;;3.53;;
60426;SDS011;46274;47.168;27.604;2023-02-01T06:20:03;9.77;;;3.63;;
60426;SDS011;46274;47.168;27.604;2023-02-01T06:26:25;10.10;;;4.77;;
60426;SDS011;46274;47.168;27.604;2023-02-01T06:32:43;9.87;;;4.77;;
60426;SDS011;46274;47.168;27.604;2023-02-01T06:38:52;10.00;;;4.67;;
60426;SDS011;46274;47.168;27.604;2023-02-01T06:45:07;19.20;;;6.07;;
60426;SDS011;46274;47.168;27.604;2023-02-01T06:58:10;26.23;;;6.70;;
60426;SDS011;46274;47.168;27.604;2023-02-01T07:04:15;13.77;;;5.30;;
60426;SDS011;46274;47.168;27.604;2023-02-01T07:10:30;14.10;;;6.17;;
60426;SDS011;46274;47.168;27.604;2023-02-01T07:16:40;12.90;;;5.23;;
60426;SDS011;46274;47.168;27.604;2023-02-01T07:22:54;8.87;;;3.73;;
60426;SDS011;46274;47.168;27.604;2023-02-01T07:29:03;14.80;;;6.77;;
60426;SDS011;46274;47.168;27.604;2023-02-01T07:41:42;28.37;;;10.93;;
60426;SDS011;46274;47.168;27.604;2023-02-01T07:47:59;17.50;;;6.53;;
60426;SDS011;46274;47.168;27.604;2023-02-01T07:54:31;10.03;;;4.63;;
60426;SDS011;46274;47.168;27.604;2023-02-01T08:00:40;10.80;;;4.17;;
60426;SDS011;46274;47.168;27.604;2023-02-01T08:07:12;24.80;;;7.97;;
60426;SDS011;46274;47.168;27.604;2023-02-01T08:13:21;12.77;;;5.10;;
60426;SDS011;46274;47.168;27.604;2023-02-01T08:19:40;12.87;;;4.80;;
60426;SDS011;46274;47.168;27.604;2023-02-01T08:25:52;17.00;;;6.37;;
60426;SDS011;46274;47.168;27.604;2023-02-01T08:32:10;17.17;;;6.40;;
60426;SDS011;46274;47.168;27.604;2023-02-01T08:38:29;11.57;;;5.50;;
60426;SDS011;46274;47.168;27.604;2023-02-01T08:44:31;24.67;;;8.30;;
60426;SDS011;46274;47.168;27.604;2023-02-01T08:57:23;25.03;;;7.77;;
60426;SDS011;46274;47.168;27.604;2023-02-01T09:03:46;10.27;;;4.90;;
60426;SDS011;46274;47.168;27.604;2023-02-01T09:10:28;7.70;;;3.80;;
60426;SDS011;46274;47.168;27.604;2023-02-01T09:16:39;7.80;;;2.37;;
60426;SDS011;46274;47.168;27.604;2023-02-01T09:22:51;7.40;;;1.70;;
60426;SDS011;46274;47.168;27.604;2023-02-01T09:29:02;2.73;;;1.17;;
60426;SDS011;46274;47.168;27.604;2023-02-01T09:35:05;5.63;;;1.50;;
60426;SDS011;46274;47.168;27.604;2023-02-01T09:48:24;7.40;;;2.23;;
60426;SDS011;46274;47.168;27.604;2023-02-01T10:03:04;4.47;;;1.50;;
60426;SDS011;46274;47.168;27.604;2023-02-01T10:10:01;4.03;;;1.37;;
60426;SDS011;46274;47.168;27.604;2023-02-01T10:16:35;6.53;;;1.80;;
60426;SDS011;46274;47.168;27.604;2023-02-01T10:36:36;6.93;;;1.70;;
60426;SDS011;46274;47.168;27.604;2023-02-01T10:42:48;6.03;;;1.47;;
60426;SDS011;46274;47.168;27.604;2023-02-01T10:56:05;4.57;;;1.67;;
60426;SDS011;46274;47.168;27.604;2023-02-01T11:09:24;5.10;;;1.70;;
60426;SDS011;46274;47.168;27.604;2023-02-01T11:22:18;4.03;;;1.47;;
60426;SDS011;46274;47.168;27.604;2023-02-01T11:35:05;9.20;;;2.37;;
60426;SDS011;46274;47.168;27.604;2023-02-01T11:41:24;7.53;;;2.10;;
60426;SDS011;46274;47.168;27.604;2023-02-01T11:47:42;5.13;;;2.00;;
60426;SDS011;46274;47.168;27.604;2023-02-01T13:20:23;3.33;;;0.90;;
60426;SDS011;46274;47.168;27.604;2023-02-01T13:26:35;2.57;;;1.20;;
60426;SDS011;46274;47.168;27.604;2023-02-01T13:32:42;2.80;;;1.50;;
60426;SDS011;46274;47.168;27.604;2023-02-01T13:46:04;5.90;;;1.90;;
60426;SDS011;46274;47.168;27.604;2023-02-01T14:19:45;12.47;;;4.57;;
60426;SDS011;46274;47.168;27.604;2023-02-01T14:26:04;9.40;;;4.30;;
60426;SDS011;46274;47.168;27.604;2023-02-01T14:32:47;15.00;;;4.47;;
60426;SDS011;46274;47.168;27.604;2023-02-01T14:39:01;15.23;;;3.87;;
60426;SDS011;46274;47.168;27.604;2023-02-01T14:51:35;15.60;;;4.50;;
60426;SDS011;46274;47.168;27.604;2023-02-01T14:57:54;11.93;;;4.03;;
60426;SDS011;46274;47.168;27.604;2023-02-01T15:04:17;11.00;;;4.40;;
60426;SDS011;46274;47.168;27.604;2023-02-01T15:11:07;22.67;;;8.83;;
60426;SDS011;46274;47.168;27.604;2023-02-01T15:17:36;7.77;;;3.37;;
60426;SDS011;46274;47.168;27.604;2023-02-01T15:23:50;6.57;;;2.73;;
60426;SDS011;46274;47.168;27.604;2023-02-01T15:30:25;8.30;;;3.10;;
60426;SDS011;46274;47.168;27.604;2023-02-01T15:37:04;40.00;;;15.00;;
60426;SDS011;46274;47.168;27.604;2023-02-01T15:43:14;65.50;;;22.60;;
60426;SDS011;46274;47.168;27.604;2023-02-01T15:49:40;35.90;;;15.97;;
60426;SDS011;46274;47.168;27.604;2023-02-01T15:55:56;28.67;;;12.70;;
60426;SDS011;46274;47.168;27.604;2023-02-01T16:02:37;22.20;;;8.80;;
60426;SDS011;46274;47.168;27.604;2023-02-01T16:09:15;19.60;;;8.83;;
60426;SDS011;46274;47.168;27.604;2023-02-01T16:15:46;18.90;;;7.67;;
60426;SDS011;46274;47.168;27.604;2023-02-01T16:22:07;31.83;;;12.53;;
60426;SDS011;46274;47.168;27.604;2023-02-01T16:28:24;54.23;;;18.57;;
60426;SDS011;46274;47.168;27.604;2023-02-01T16:34:35;24.83;;;9.63;;
60426;SDS011;46274;47.168;27.604;2023-02-01T16:40:46;23.63;;;10.07;;
60426;SDS011;46274;47.168;27.604;2023-02-01T16:46:57;25.67;;;11.00;;
60426;SDS011;46274;47.168;27.604;2023-02-01T16:53:07;20.93;;;8.60;;
60426;SDS011;46274;47.168;27.604;2023-02-01T16:59:25;20.00;;;8.90;;
60426;SDS011;46274;47.168;27.604;2023-02-01T17:05:43;22.07;;;8.73;;
60426;SDS011;46274;47.168;27.604;2023-02-01T17:12:25;36.27;;;15.00;;
60426;SDS011;46274;47.168;27.604;2023-02-01T17:18:59;60.93;;;20.70;;
60426;SDS011;46274;47.168;27.604;2023-02-01T17:25:36;48.77;;;19.07;;
60426;SDS011;46274;47.168;27.604;2023-02-01T17:31:49;42.43;;;17.90;;
60426;SDS011;46274;47.168;27.604;2023-02-01T17:38:26;37.97;;;13.80;;
60426;SDS011;46274;47.168;27.604;2023-02-01T17:44:45;91.20;;;31.83;;
60426;SDS011;46274;47.168;27.604;2023-02-01T17:51:55;76.83;;;25.97;;
60426;SDS011;46274;47.168;27.604;2023-02-01T17:58:09;20.23;;;8.60;;
60426;SDS011;46274;47.168;27.604;2023-02-01T18:04:29;15.70;;;7.07;;
60426;SDS011;46274;47.168;27.604;2023-02-01T18:10:58;15.87;;;6.70;;
60426;SDS011;46274;47.168;27.604;2023-02-01T18:17:47;17.50;;;6.97;;
60426;SDS011;46274;47.168;27.604;2023-02-01T18:24:16;22.07;;;7.13;;
60426;SDS011;46274;47.168;27.604;2023-02-01T18:30:39;19.90;;;7.87;;
60426;SDS011;46274;47.168;27.604;2023-02-01T18:37:05;13.10;;;5.07;;
60426;SDS011;46274;47.168;27.604;2023-02-01T18:43:09;11.37;;;4.73;;
60426;SDS011;46274;47.168;27.604;2023-02-01T18:49:25;13.13;;;5.23;;
60426;SDS011;46274;47.168;27.604;2023-02-01T18:55:37;13.90;;;5.37;;
60426;SDS011;46274;47.168;27.604;2023-02-01T19:01:56;14.83;;;6.53;;
60426;SDS011;46274;47.168;27.604;2023-02-01T19:08:15;19.93;;;6.20;;
60426;SDS011;46274;47.168;27.604;2023-02-01T19:14:37;12.53;;;4.70;;
60426;SDS011;46274;47.168;27.604;2023-02-01T19:21:04;10.87;;;4.47;;
60426;SDS011;46274;47.168;27.604;2023-02-01T19:27:19;12.00;;;5.60;;
60426;SDS011;46274;47.168;27.604;2023-02-01T19:33:35;15.07;;;5.37;;
60426;SDS011;46274;47.168;27.604;2023-02-01T19:40:02;14.33;;;6.23;;
60426;SDS011;46274;47.168;27.604;2023-02-01T19:46:24;14.70;;;6.50;;
60426;SDS011;46274;47.168;27.604;2023-02-01T19:52:40;11.60;;;5.47;;
60426;SDS011;46274;47.168;27.604;2023-02-01T19:58:50;11.40;;;4.60;;
60426;SDS011;46274;47.168;27.604;2023-02-01T20:05:05;11.67;;;4.53;;
60426;SDS011;46274;47.168;27.604;2023-02-01T20:11:24;8.67;;;4.17;;
60426;SDS011;46274;47.168;27.604;2023-02-01T20:17:32;8.83;;;4.17;;
60426;SDS011;46274;47.168;27.604;2023-02-01T20:24:05;7.30;;;3.30;;
60426;SDS011;46274;47.168;27.604;2023-02-01T20:30:15;7.50;;;3.23;;
60426;SDS011;46274;47.168;27.604;2023-02-01T20:36:25;5.77;;;2.90;;
60426;SDS011;46274;47.168;27.604;2023-02-01T20:42:44;7.03;;;2.60;;
60426;SDS011;46274;47.168;27.604;2023-02-01T20:48:49;7.47;;;3.47;;
60426;SDS011;46274;47.168;27.604;2023-02-01T20:54:59;7.87;;;3.03;;
60426;SDS011;46274;47.168;27.604;2023-02-01T21:01:08;9.07;;;2.90;;
60426;SDS011;46274;47.168;27.604;2023-02-01T21:07:26;9.77;;;3.20;;
60426;SDS011;46274;47.168;27.604;2023-02-01T21:13:34;6.90;;;2.57;;
60426;SDS011;46274;47.168;27.604;2023-02-01T21:20:05;5.60;;;2.50;;
60426;SDS011;46274;47.168;27.604;2023-02-01T21:26:23;5.47;;;2.50;;
60426;SDS011;46274;47.168;27.604;2023-02-01T21:32:32;5.33;;;2.70;;
60426;SDS011;46274;47.168;27.604;2023-02-01T21:38:37;9.00;;;3.27;;
60426;SDS011;46274;47.168;27.604;2023-02-01T21:44:40;7.67;;;2.60;;
60426;SDS011;46274;47.168;27.604;2023-02-01T21:50:50;4.57;;;2.50;;
60426;SDS011;46274;47.168;27.604;2023-02-01T21:57:09;5.43;;;2.40;;
60426;SDS011;46274;47.168;27.604;2023-02-01T22:03:17;5.43;;;2.57;;
60426;SDS011;46274;47.168;27.604;2023-02-01T22:09:22;5.57;;;2.30;;
60426;SDS011;46274;47.168;27.604;2023-02-01T22:15:32;14.13;;;5.93;;
60426;SDS011;46274;47.168;27.604;2023-02-01T22:21:57;18.37;;;7.17;;
60426;SDS011;46274;47.168;27.604;2023-02-01T22:28:06;13.17;;;5.23;;
60426;SDS011;46274;47.168;27.604;2023-02-01T22:34:28;11.53;;;4.60;;
60426;SDS011;46274;47.168;27.604;2023-02-01T22:40:45;9.20;;;4.17;;
60426;SDS011;46274;47.168;27.604;2023-02-01T22:47:05;13.03;;;4.03;;
60426;SDS011;46274;47.168;27.604;2023-02-01T22:53:17;13.13;;;5.83;;
60426;SDS011;46274;47.168;27.604;2023-02-01T22:59:38;24.80;;;8.30;;
60426;SDS011;46274;47.168;27.604;2023-02-01T23:05:56;38.97;;;15.40;;
60426;SDS011;46274;47.168;27.604;2023-02-01T23:12:18;38.57;;;16.37;;
60426;SDS011;46274;47.168;27.604;2023-02-01T23:18:23;20.27;;;7.40;;
60426;SDS011;46274;47.168;27.604;2023-02-01T23:24:27;14.00;;;5.13;;
60426;SDS011;46274;47.168;27.604;2023-02-01T23:30:32;9.17;;;3.40;;
60426;SDS011;46274;47.168;27.604;2023-02-01T23:36:42;10.10;;;4.30;;
60426;SDS011;46274;47.168;27.604;2023-02-01T23:42:51;6.30;;;3.50;;
60426;SDS011;46274;47.168;27.604;2023-02-01T23:49:40;6.13;;;2.70;;
60426;SDS011;46274;47.168;27.604;2023-02-01T23:55:53;9.97;;;3.60;;
